Time;durP1;ratioP1;P1;durP2;ratioP2;P2;SDS_P1;SDS_P2;PMS_P1;PMS_P2;Temp;Humidity;BMP_temperature;BMP_pressure;BME280_temperature;BME280_humidity;BME280_pressure;Samples;Min_cycle;Max_cycle;Signal;HPM_P1;HPM_P2
2022/06/19 00:01:00;;;;;;;8.48;1.98;;;13.90;99.90;;;;;;6168691;23;20016;-93
2022/06/19 00:03:43;;;;;;;4.82;1.48;;;13.50;99.90;;;;;;6170748;23;20016;-91
2022/06/19 00:06:26;;;;;;;7.95;1.90;;;13.70;99.90;;;;;;6173714;23;20024;-92
2022/06/19 00:08:54;;;;;;;6.13;1.45;;;13.70;99.90;;;;;;6147654;23;20040;-93
2022/06/19 00:11:24;;;;;;;3.35;1.10;;;13.00;99.90;;;;;;6171652;23;20387;-93
2022/06/19 00:14:04;;;;;;;5.00;1.50;;;13.50;99.90;;;;;;6169878;23;20041;-91
2022/06/19 00:16:39;;;;;;;7.10;2.05;;;13.00;99.90;;;;;;6149889;23;20052;-92
2022/06/19 00:19:06;;;;;;;5.43;1.20;;;13.50;99.90;;;;;;6147070;23;20013;-93
2022/06/19 00:21:32;;;;;;;4.15;1.30;;;13.40;99.90;;;;;;6173249;23;20021;-95
2022/06/19 00:24:07;;;;;;;9.75;1.52;;;13.40;99.90;;;;;;6154208;23;20012;-94
2022/06/19 00:26:39;;;;;;;7.20;1.40;;;13.40;99.90;;;;;;6172473;23;20099;-92
2022/06/19 00:29:08;;;;;;;6.70;1.30;;;13.50;99.90;;;;;;6143205;23;20455;-93
2022/06/19 00:31:34;;;;;;;5.60;1.35;;;13.40;99.90;;;;;;6143214;23;20024;-93
2022/06/19 00:34:00;;;;;;;5.22;1.25;;;13.40;99.90;;;;;;6144434;23;20013;-93
2022/06/19 00:36:27;;;;;;;7.50;1.80;;;13.30;99.90;;;;;;6169379;23;20447;-94
2022/06/19 00:38:59;;;;;;;4.15;1.50;;;13.20;99.90;;;;;;6119834;23;20020;-94
2022/06/19 00:41:44;;;;;;;7.97;1.48;;;13.30;99.90;;;;;;6143483;23;20024;-93
2022/06/19 00:44:18;;;;;;;8.55;1.98;;;13.40;99.90;;;;;;6167781;23;20087;-93
2022/06/19 00:47:09;;;;;;;5.80;1.48;;;13.40;99.90;;;;;;6143278;23;20407;-93
2022/06/19 00:49:49;;;;;;;5.55;1.42;;;13.40;99.90;;;;;;6166588;23;20024;-92
2022/06/19 00:52:51;;;;;;;7.97;1.63;;;12.70;99.90;;;;;;6170601;23;20079;-93
2022/06/19 00:55:41;;;;;;;9.02;1.63;;;13.50;99.90;;;;;;6059629;23;20085;-93
2022/06/19 00:58:16;;;;;;;14.40;2.10;;;13.60;99.90;;;;;;6127670;23;20020;-93
2022/06/19 01:00:55;;;;;;;5.38;1.40;;;13.60;99.90;;;;;;6169126;23;20020;-93
2022/06/19 01:03:52;;;;;;;8.30;1.67;;;13.60;99.90;;;;;;6145899;23;20092;-93
2022/06/19 01:06:54;;;;;;;8.93;1.73;;;13.70;99.90;;;;;;6179200;23;20005;-93
2022/06/19 01:09:35;;;;;;;6.95;1.50;;;13.70;99.90;;;;;;6178248;23;20065;-94
2022/06/19 01:12:08;;;;;;;5.25;1.70;;;13.70;99.90;;;;;;6150398;23;20021;-94
2022/06/19 01:14:44;;;;;;;12.00;2.17;;;13.80;99.90;;;;;;6176005;23;20013;-95
2022/06/19 01:17:15;;;;;;;9.73;1.77;;;13.90;99.90;;;;;;6175456;23;20017;-93
2022/06/19 01:19:53;;;;;;;6.43;1.90;;;13.90;99.90;;;;;;6173804;23;20012;-92
2022/06/19 01:22:55;;;;;;;9.20;1.70;;;14.00;99.90;;;;;;6145955;23;20028;-94
2022/06/19 01:26:02;;;;;;;11.10;3.03;;;14.00;99.90;;;;;;6174828;23;20017;-95
2022/06/19 01:28:54;;;;;;;7.10;2.03;;;13.40;99.90;;;;;;6173148;23;20036;-95
2022/06/19 01:31:34;;;;;;;10.57;2.60;;;14.00;99.90;;;;;;6177151;23;20344;-92
2022/06/19 01:34:39;;;;;;;8.70;2.10;;;13.60;99.90;;;;;;6077430;23;20135;-94
2022/06/19 01:37:24;;;;;;;6.15;1.67;;;13.90;99.90;;;;;;6175403;23;20017;-96
2022/06/19 01:46:56;;;;;;;8.30;1.90;;;13.90;99.90;;;;;;6194505;23;20017;-93
2022/06/19 01:49:23;;;;;;;11.13;2.22;;;13.90;99.90;;;;;;6125426;23;20017;-94
2022/06/19 01:51:59;;;;;;;11.60;2.10;;;13.90;99.90;;;;;;6149644;23;20049;-94
2022/06/19 01:54:35;;;;;;;14.07;2.63;;;13.80;99.90;;;;;;6151490;23;20044;-94
2022/06/19 01:57:12;;;;;;;15.35;2.00;;;14.30;99.90;;;;;;6177811;23;20037;-94
2022/06/19 02:00:09;;;;;;;8.73;2.17;;;13.90;99.90;;;;;;6149063;23;20013;-93
2022/06/19 02:02:43;;;;;;;12.98;1.90;;;13.90;99.90;;;;;;6121224;23;20100;-94
2022/06/19 02:05:09;;;;;;;9.38;2.08;;;13.80;99.90;;;;;;6170755;23;20013;-94
2022/06/19 02:07:46;;;;;;;9.40;2.00;;;13.80;99.90;;;;;;6171060;23;20012;-94
2022/06/19 02:10:13;;;;;;;9.30;1.92;;;13.80;99.90;;;;;;6123106;23;20019;-94
2022/06/19 02:12:39;;;;;;;15.25;2.55;;;14.60;99.90;;;;;;6146794;23;20013;-95
2022/06/19 02:15:12;;;;;;;9.15;2.00;;;13.90;99.90;;;;;;6169974;23;20083;-93
2022/06/19 02:17:59;;;;;;;9.10;2.33;;;13.80;99.90;;;;;;6172846;23;20013;-92
2022/06/19 02:20:45;;;;;;;9.13;2.05;;;13.90;99.90;;;;;;6174341;23;20019;-93
2022/06/19 02:23:12;;;;;;;10.52;2.10;;;13.60;99.90;;;;;;6178037;23;20017;-94
2022/06/19 02:26:20;;;;;;;;;;;;;;;;;;;;;
2022/06/19 02:28:50;;;;;;;13.23;2.88;;;13.80;99.90;;;;;;6189501;23;20065;-94
2022/06/19 02:31:23;;;;;;;12.48;2.60;;;13.70;99.90;;;;;;6187350;23;20041;-95
2022/06/19 02:34:22;;;;;;;11.18;2.25;;;13.70;99.90;;;;;;6165254;23;20068;-93
2022/06/19 02:37:22;;;;;;;11.32;2.38;;;13.50;99.90;;;;;;6170392;23;20071;-93
2022/06/19 02:40:19;;;;;;;13.20;2.33;;;13.60;99.90;;;;;;6169444;23;20087;-93
2022/06/19 02:42:55;;;;;;;11.20;2.13;;;13.60;99.90;;;;;;6170438;23;20013;-92
2022/06/19 02:45:24;;;;;;;8.77;1.88;;;13.60;99.90;;;;;;6169131;23;20013;-92
2022/06/19 02:47:52;;;;;;;7.95;2.00;;;13.60;99.90;;;;;;6171337;23;20068;-92
2022/06/19 02:50:28;;;;;;;11.32;2.08;;;13.60;99.90;;;;;;6166222;23;20013;-92
2022/06/19 02:52:54;;;;;;;10.38;2.33;;;13.60;99.90;;;;;;6166873;23;20020;-93
2022/06/19 02:55:21;;;;;;;11.18;2.67;;;13.60;99.90;;;;;;6130524;23;20017;-94
2022/06/19 02:57:49;;;;;;;11.00;2.92;;;13.50;99.90;;;;;;6150435;23;20013;-94
2022/06/19 03:00:22;;;;;;;14.63;2.38;;;13.50;99.90;;;;;;6144242;23;20013;-92
2022/06/19 03:02:55;;;;;;;11.68;2.50;;;13.50;99.90;;;;;;6171320;23;20021;-92
2022/06/19 03:05:26;;;;;;;11.02;2.58;;;13.50;99.90;;;;;;6172038;23;20616;-93
2022/06/19 03:07:52;;;;;;;10.45;2.17;;;13.50;99.90;;;;;;6162139;23;20024;-94
2022/06/19 03:10:18;;;;;;;10.40;2.10;;;13.40;99.90;;;;;;6137250;23;20017;-93
2022/06/19 03:12:44;;;;;;;12.07;2.05;;;13.40;99.90;;;;;;6138744;23;20455;-91
2022/06/19 03:15:12;;;;;;;11.60;2.30;;;13.40;99.90;;;;;;6136805;23;20020;-93
2022/06/19 03:17:39;;;;;;;9.00;2.20;;;13.30;99.90;;;;;;6138408;23;20061;-92
2022/06/19 03:20:06;;;;;;;11.10;1.80;;;13.30;99.90;;;;;;6137843;23;20092;-92
2022/06/19 03:22:32;;;;;;;12.60;2.33;;;13.30;99.90;;;;;;6161230;23;20055;-92
2022/06/19 03:24:58;;;;;;;13.38;2.17;;;13.30;99.90;;;;;;6138131;23;20021;-93
2022/06/19 03:27:24;;;;;;;8.00;1.80;;;13.30;99.90;;;;;;6115313;23;20013;-92
2022/06/19 03:29:50;;;;;;;9.80;1.98;;;13.30;99.90;;;;;;6114163;23;20021;-93
2022/06/19 03:32:16;;;;;;;8.00;2.00;;;13.30;99.90;;;;;;6163272;23;20024;-92
2022/06/19 03:34:42;;;;;;;8.82;1.80;;;13.20;99.90;;;;;;6138431;23;20095;-92
2022/06/19 03:37:09;;;;;;;9.43;1.70;;;13.30;99.90;;;;;;6162639;23;20466;-92
2022/06/19 03:39:35;;;;;;;15.65;3.10;;;13.30;99.90;;;;;;6139759;23;20028;-92
2022/06/19 03:42:01;;;;;;;11.70;2.42;;;13.20;99.90;;;;;;6114803;23;20020;-92
2022/06/19 03:44:27;;;;;;;8.23;1.55;;;13.20;99.90;;;;;;6116405;23;20017;-92
2022/06/19 03:46:53;;;;;;;12.60;2.95;;;13.30;99.90;;;;;;6165494;23;20534;-93
2022/06/19 03:49:20;;;;;;;11.95;2.30;;;13.20;99.90;;;;;;6115892;23;20017;-94
2022/06/19 03:51:46;;;;;;;13.50;2.80;;;13.20;99.90;;;;;;6165515;23;20013;-93
2022/06/19 03:54:12;;;;;;;8.43;1.83;;;13.20;99.90;;;;;;6118436;23;20115;-92
2022/06/19 03:56:38;;;;;;;11.43;2.10;;;13.10;99.90;;;;;;6139854;23;20017;-91
2022/06/19 03:59:07;;;;;;;7.13;1.83;;;13.10;99.90;;;;;;6163299;23;20052;-91
2022/06/19 04:01:36;;;;;;;12.30;2.03;;;13.10;99.90;;;;;;6139924;23;20035;-89
2022/06/19 04:06:58;;;;;;;8.80;2.42;;;13.00;99.90;;;;;;6137930;23;20089;-91
2022/06/19 04:09:29;;;;;;;9.68;2.10;;;12.90;99.90;;;;;;6116040;23;20421;-90
2022/06/19 04:11:55;;;;;;;15.02;2.40;;;12.90;99.90;;;;;;6139072;23;20021;-92
2022/06/19 04:14:27;;;;;;;13.50;2.78;;;12.70;99.90;;;;;;6116963;23;20019;-91
2022/06/19 04:16:54;;;;;;;9.75;1.85;;;11.90;99.90;;;;;;6166889;23;20024;-90
2022/06/19 04:19:22;;;;;;;10.02;1.85;;;12.60;99.90;;;;;;6116379;23;20017;-91
2022/06/19 04:21:49;;;;;;;9.52;1.88;;;12.40;99.90;;;;;;6139402;23;20025;-90
2022/06/19 04:24:22;;;;;;;7.75;2.20;;;12.30;99.90;;;;;;6139752;23;20461;-91
2022/06/19 04:26:56;;;;;;;9.30;1.70;;;12.10;99.90;;;;;;6167490;23;20032;-90
2022/06/19 04:29:23;;;;;;;7.93;1.90;;;11.90;99.90;;;;;;6143325;23;20021;-91
2022/06/19 04:31:49;;;;;;;9.45;2.17;;;11.70;99.90;;;;;;6166680;23;20041;-90
2022/06/19 04:34:15;;;;;;;6.30;1.95;;;11.60;99.90;;;;;;6164872;23;20025;-90
2022/06/19 04:36:43;;;;;;;8.30;2.08;;;11.60;99.90;;;;;;6115777;23;20047;-90
2022/06/19 04:39:13;;;;;;;5.60;1.92;;;11.40;99.90;;;;;;6120409;23;20021;-93
2022/06/19 04:41:43;;;;;;;11.13;1.90;;;11.30;99.90;;;;;;6165348;23;20028;-93
2022/06/19 04:44:18;;;;;;;4.50;1.38;;;11.20;99.90;;;;;;6171056;23;20099;-94
2022/06/19 04:46:47;;;;;;;5.93;1.50;;;11.10;99.90;;;;;;6172527;23;20043;-92
2022/06/19 04:49:15;;;;;;;6.80;1.50;;;11.10;99.90;;;;;;6164861;23;20032;-92
2022/06/19 04:51:41;;;;;;;4.72;1.20;;;11.30;99.90;;;;;;6169517;23;20117;-89
2022/06/19 04:54:07;;;;;;;5.85;1.48;;;11.30;99.90;;;;;;6166575;23;20013;-91
2022/06/19 04:56:33;;;;;;;6.18;1.30;;;11.20;99.90;;;;;;6138482;23;20459;-92
2022/06/19 04:58:59;;;;;;;7.70;1.58;;;11.20;99.90;;;;;;6115175;23;20092;-92
2022/06/19 05:01:30;;;;;;;7.15;1.50;;;11.30;99.90;;;;;;6142977;23;20017;-94
2022/06/19 05:03:59;;;;;;;6.72;1.35;;;11.40;99.90;;;;;;6170371;23;20049;-93
2022/06/19 05:06:27;;;;;;;6.95;1.48;;;11.40;99.90;;;;;;6166970;23;20075;-93
2022/06/19 05:08:53;;;;;;;7.45;1.52;;;10.90;99.90;;;;;;6165161;23;20024;-93
2022/06/19 05:11:25;;;;;;;6.80;1.35;;;11.40;99.90;;;;;;6142754;23;20344;-92
2022/06/19 05:13:51;;;;;;;6.18;1.65;;;11.50;99.90;;;;;;6168534;23;20018;-94
2022/06/19 05:16:20;;;;;;;5.93;1.45;;;11.50;99.90;;;;;;6143657;23;20020;-93
2022/06/19 05:18:46;;;;;;;7.22;1.98;;;11.50;99.90;;;;;;6172906;23;20013;-91
2022/06/19 05:21:13;;;;;;;7.68;1.70;;;11.60;99.90;;;;;;6144518;23;20064;-93
2022/06/19 05:24:04;;;;;;;6.28;1.30;;;11.70;99.90;;;;;;6172150;23;20021;-94
2022/06/19 05:26:37;;;;;;;7.18;1.60;;;11.80;99.90;;;;;;6145842;23;20017;-93
2022/06/19 05:29:04;;;;;;;8.05;1.90;;;11.50;99.90;;;;;;6168974;23;20024;-92
2022/06/19 05:31:34;;;;;;;10.05;2.42;;;11.90;99.90;;;;;;6143843;23;20095;-95
2022/06/19 05:34:00;;;;;;;11.25;2.00;;;12.00;99.90;;;;;;6115911;23;20017;-95
2022/06/19 05:36:29;;;;;;;10.13;1.80;;;12.00;99.90;;;;;;6140046;23;20013;-93
2022/06/19 05:39:00;;;;;;;11.75;2.42;;;12.00;99.90;;;;;;6116223;23;20013;-95
2022/06/19 05:41:30;;;;;;;7.25;2.10;;;12.10;99.90;;;;;;6115157;23;20021;-93
2022/06/19 05:43:58;;;;;;;16.98;2.10;;;12.20;99.90;;;;;;6114157;23;20017;-94
2022/06/19 05:46:31;;;;;;;12.38;2.17;;;12.20;99.90;;;;;;6115946;23;20533;-95
2022/06/19 05:49:01;;;;;;;8.63;1.80;;;11.90;99.90;;;;;;6118552;23;20072;-94
2022/06/19 05:51:27;;;;;;;10.73;3.55;;;12.20;99.90;;;;;;6117050;23;20053;-94
2022/06/19 05:53:57;;;;;;;11.52;2.75;;;12.30;99.90;;;;;;6141171;23;20020;-94
2022/06/19 05:56:27;;;;;;;11.10;2.30;;;12.40;99.90;;;;;;6142478;23;20088;-93
2022/06/19 05:58:56;;;;;;;13.20;2.22;;;12.40;99.90;;;;;;6167227;23;20053;-93
2022/06/19 06:01:23;;;;;;;13.32;2.15;;;12.40;99.90;;;;;;6168172;23;20017;-94
2022/06/19 06:03:52;;;;;;;7.03;1.65;;;12.40;99.90;;;;;;6193568;23;20087;-94
2022/06/19 06:06:24;;;;;;;12.40;2.10;;;12.40;99.90;;;;;;6146391;23;20017;-92
2022/06/19 06:08:50;;;;;;;7.75;1.80;;;12.60;99.90;;;;;;6169450;23;20075;-94
2022/06/19 06:11:18;;;;;;;7.43;2.05;;;12.50;99.90;;;;;;6170073;23;20024;-94
2022/06/19 06:13:44;;;;;;;12.38;2.45;;;12.40;99.90;;;;;;6167141;23;20013;-93
2022/06/19 06:16:13;;;;;;;11.82;2.40;;;12.40;99.90;;;;;;6168709;23;20071;-93
2022/06/19 06:18:39;;;;;;;9.43;1.83;;;12.40;99.90;;;;;;6148235;23;20044;-93
2022/06/19 06:21:10;;;;;;;8.55;1.75;;;12.40;99.90;;;;;;6177264;23;20017;-94
2022/06/19 06:23:36;;;;;;;9.52;2.33;;;12.40;99.90;;;;;;6182191;23;20024;-92
2022/06/19 06:26:15;;;;;;;9.60;1.55;;;12.40;99.90;;;;;;6159155;23;20040;-94
2022/06/19 06:28:43;;;;;;;9.05;1.75;;;12.40;99.90;;;;;;6177009;23;20512;-95
2022/06/19 06:31:13;;;;;;;8.68;1.77;;;12.60;99.90;;;;;;6169921;23;20024;-95
2022/06/19 06:33:39;;;;;;;7.80;1.92;;;12.50;99.90;;;;;;6147785;23;20016;-96
2022/06/19 06:36:06;;;;;;;9.85;1.90;;;12.50;99.90;;;;;;6146167;23;20065;-94
2022/06/19 06:38:32;;;;;;;11.05;2.30;;;12.60;99.90;;;;;;6148914;23;20047;-95
2022/06/19 06:40:59;;;;;;;7.38;1.70;;;12.60;99.90;;;;;;6171996;23;20346;-94
2022/06/19 06:43:29;;;;;;;14.48;2.25;;;12.70;99.90;;;;;;6170895;23;20078;-94
2022/06/19 06:46:07;;;;;;;10.20;2.00;;;12.80;99.90;;;;;;6147675;23;20019;-95
2022/06/19 06:48:32;;;;;;;8.77;1.88;;;12.80;99.90;;;;;;6169939;23;20044;-96
2022/06/19 06:50:58;;;;;;;10.40;2.15;;;12.80;99.90;;;;;;6144523;23;20012;-93
2022/06/19 06:53:24;;;;;;;7.80;1.70;;;12.80;99.90;;;;;;6120688;23;20044;-92
2022/06/19 06:55:56;;;;;;;16.20;2.40;;;12.90;99.90;;;;;;6146412;23;20028;-93
2022/06/19 06:58:22;;;;;;;14.70;2.97;;;12.80;99.90;;;;;;6150487;23;20035;-91
2022/06/19 07:01:27;;;;;;;7.18;1.50;;;12.80;99.90;;;;;;6155222;23;20074;-92
2022/06/19 07:04:02;;;;;;;10.15;2.22;;;12.90;99.90;;;;;;6132646;23;20013;-93
2022/06/19 07:06:28;;;;;;;;;;;13.00;99.90;;;;;;6175534;23;20048;-93
2022/06/19 07:08:58;;;;;;;7.72;1.70;;;13.50;99.90;;;;;;6150055;23;19919;-93
2022/06/19 07:11:39;;;;;;;10.65;1.80;;;12.90;99.90;;;;;;6152199;23;20016;-92
2022/06/19 07:14:07;;;;;;;5.40;1.40;;;13.00;99.90;;;;;;6172972;23;20013;-93
2022/06/19 07:16:37;;;;;;;8.90;1.98;;;13.10;99.90;;;;;;6146360;23;20066;-93
2022/06/19 07:19:04;;;;;;;14.85;1.95;;;13.10;99.90;;;;;;6124479;23;20020;-92
2022/06/19 07:21:30;;;;;;;11.13;2.13;;;13.00;99.90;;;;;;6148006;23;20017;-92
2022/06/19 07:23:57;;;;;;;9.95;1.65;;;12.90;99.90;;;;;;6156051;23;20024;-91
2022/06/19 07:26:29;;;;;;;13.50;2.20;;;13.00;99.90;;;;;;6174755;23;20051;-94
2022/06/19 07:28:56;;;;;;;7.35;2.03;;;12.90;99.90;;;;;;6149399;23;20048;-92
2022/06/19 07:31:22;;;;;;;10.30;2.72;;;12.90;99.90;;;;;;6150958;23;20020;-92
2022/06/19 07:33:48;;;;;;;7.53;1.77;;;12.90;99.90;;;;;;6172879;23;20016;-93
2022/06/19 07:36:20;;;;;;;9.02;1.67;;;13.10;99.90;;;;;;6127817;23;20013;-91
2022/06/19 07:38:52;;;;;;;7.15;1.80;;;13.10;99.90;;;;;;6174468;23;20009;-92
2022/06/19 07:41:18;;;;;;;7.47;1.90;;;13.20;99.90;;;;;;6145049;23;20017;-92
2022/06/19 07:44:08;;;;;;;11.63;2.10;;;13.30;99.90;;;;;;6150260;23;20016;-90
2022/06/19 07:50:21;;;;;;;9.85;2.15;;;13.80;99.90;;;;;;6185380;23;20095;-90
2022/06/19 07:53:10;;;;;;;10.35;2.00;;;13.60;99.90;;;;;;6135728;23;20040;-91
2022/06/19 07:55:39;;;;;;;4.97;1.55;;;13.60;99.90;;;;;;6148407;23;20019;-92
2022/06/19 07:58:06;;;;;;;8.27;1.50;;;13.70;99.90;;;;;;6125726;23;20008;-92
2022/06/19 08:00:34;;;;;;;11.32;2.22;;;13.70;99.90;;;;;;6152477;23;20455;-91
2022/06/19 08:03:01;;;;;;;8.57;2.10;;;13.80;99.90;;;;;;6177341;23;20075;-92
2022/06/19 08:05:30;;;;;;;8.38;1.80;;;13.90;99.90;;;;;;6184061;23;20068;-90
2022/06/19 08:08:02;;;;;;;10.88;1.73;;;13.90;99.90;;;;;;6189175;23;20001;-90
2022/06/19 08:10:35;;;;;;;10.20;1.73;;;14.00;99.90;;;;;;6185045;23;20021;-92
2022/06/19 08:13:06;;;;;;;6.50;1.60;;;13.80;99.90;;;;;;6178710;23;20017;-91
2022/06/19 08:15:36;;;;;;;10.00;2.28;;;13.90;99.90;;;;;;6179834;23;20012;-91
2022/06/19 08:18:03;;;;;;;8.50;1.63;;;13.90;99.90;;;;;;6131222;23;20044;-91
2022/06/19 08:20:30;;;;;;;5.65;1.70;;;13.80;99.90;;;;;;6177788;23;20055;-92
2022/06/19 08:22:56;;;;;;;9.25;1.65;;;13.00;99.90;;;;;;6174609;23;20027;-92
2022/06/19 08:25:24;;;;;;;7.90;1.40;;;13.80;99.90;;;;;;6153322;23;20442;-91
2022/06/19 08:28:02;;;;;;;9.23;1.60;;;13.90;99.90;;;;;;6127100;23;20387;-91
2022/06/19 08:30:33;;;;;;;7.68;1.52;;;14.40;99.90;;;;;;6145098;23;20071;-91
2022/06/19 08:32:59;;;;;;;9.75;1.88;;;13.90;99.90;;;;;;6167969;23;20012;-91
2022/06/19 08:35:28;;;;;;;7.80;2.05;;;14.00;99.90;;;;;;6146401;23;20036;-92
2022/06/19 08:38:00;;;;;;;14.35;1.88;;;14.00;99.90;;;;;;6169672;23;20335;-91
2022/06/19 08:40:43;;;;;;;6.97;1.50;;;14.00;99.90;;;;;;6173773;23;20016;-92
2022/06/19 08:43:35;;;;;;;8.68;1.50;;;14.10;99.90;;;;;;6175972;23;20744;-91
2022/06/19 08:46:26;;;;;;;11.05;2.20;;;14.30;99.90;;;;;;6175977;23;20115;-91
2022/06/19 08:48:57;;;;;;;9.02;1.75;;;14.40;99.90;;;;;;6173350;23;20116;-93
2022/06/19 08:52:09;;;;;;;4.35;1.05;;;14.50;99.90;;;;;;6176877;23;20012;-93
2022/06/19 08:54:53;;;;;;;5.95;1.17;;;14.70;99.90;;;;;;6182453;23;20013;-93
2022/06/19 08:58:00;;;;;;;5.80;1.25;;;14.80;99.90;;;;;;6182535;23;20043;-94
2022/06/19 09:00:47;;;;;;;7.15;1.30;;;14.80;99.90;;;;;;6183142;23;20020;-92
2022/06/19 09:03:23;;;;;;;5.20;1.40;;;14.70;99.90;;;;;;6185695;23;20019;-95
2022/06/19 09:06:02;;;;;;;4.90;1.38;;;14.60;99.90;;;;;;6209527;23;20112;-94
2022/06/19 09:08:50;;;;;;;5.00;1.63;;;14.60;99.90;;;;;;6187065;23;20009;-94
2022/06/19 09:11:54;;;;;;;7.35;1.60;;;14.60;99.90;;;;;;6186095;23;20477;-92
2022/06/19 09:14:30;;;;;;;5.72;1.40;;;14.60;99.90;;;;;;6186449;23;20061;-94
2022/06/19 09:17:09;;;;;;;4.65;1.17;;;14.60;99.90;;;;;;6188221;23;20020;-94
2022/06/19 09:19:50;;;;;;;7.15;1.70;;;14.70;99.90;;;;;;6181442;23;20017;-95
2022/06/19 09:22:35;;;;;;;7.30;1.50;;;14.60;99.90;;;;;;6182434;23;20021;-94
2022/06/19 09:25:20;;;;;;;4.88;1.10;;;14.80;99.90;;;;;;6183057;23;20047;-93
2022/06/19 09:28:17;;;;;;;7.57;1.58;;;14.60;99.90;;;;;;6187661;23;20048;-92
2022/06/19 09:31:06;;;;;;;6.70;1.27;;;14.70;99.90;;;;;;6213863;23;20024;-91
2022/06/19 09:33:45;;;;;;;8.45;1.45;;;14.70;99.90;;;;;;6194262;23;20051;-94
2022/06/19 09:36:40;;;;;;;4.35;1.42;;;14.30;99.90;;;;;;6194103;23;20032;-93
2022/06/19 09:39:53;;;;;;;4.43;1.10;;;14.70;99.90;;;;;;6185096;23;20023;-92
2022/06/19 09:42:50;;;;;;;5.10;1.25;;;15.10;99.90;;;;;;6191881;23;20016;-94
2022/06/19 09:45:50;;;;;;;4.75;1.45;;;14.30;99.90;;;;;;6173395;23;20023;-94
2022/06/19 09:48:48;;;;;;;2.72;0.90;;;14.40;99.90;;;;;;6176192;23;20014;-93
2022/06/19 09:51:32;;;;;;;4.90;1.20;;;14.40;99.90;;;;;;6175395;23;20405;-93
2022/06/19 09:54:19;;;;;;;5.68;1.40;;;14.40;99.90;;;;;;6174821;23;20020;-93
2022/06/19 09:57:21;;;;;;;3.72;1.10;;;14.50;99.90;;;;;;6173848;23;20068;-94
2022/06/19 10:00:24;;;;;;;2.95;1.00;;;14.40;99.90;;;;;;6171707;23;20013;-94
2022/06/19 10:03:12;;;;;;;5.05;1.15;;;14.40;99.90;;;;;;6083572;23;20118;-93
2022/06/19 10:05:42;;;;;;;4.57;1.05;;;14.50;99.90;;;;;;6112518;23;20068;-93
2022/06/19 10:08:32;;;;;;;3.00;1.10;;;14.90;99.90;;;;;;6188981;23;20020;-95
2022/06/19 10:11:12;;;;;;;7.05;1.15;;;14.80;99.90;;;;;;6191177;23;20017;-94
2022/06/19 10:13:59;;;;;;;5.72;1.67;;;14.90;99.90;;;;;;6189076;23;20016;-93
2022/06/19 10:17:03;;;;;;;5.82;0.93;;;15.00;99.90;;;;;;6186834;23;20020;-93
2022/06/19 10:19:54;;;;;;;4.53;1.00;;;15.20;99.90;;;;;;6188157;23;20027;-94
2022/06/19 10:22:38;;;;;;;4.22;1.05;;;15.50;99.90;;;;;;6204729;23;20028;-95
2022/06/19 10:25:42;;;;;;;4.47;1.10;;;15.50;99.90;;;;;;6179995;23;20044;-92
2022/06/19 10:28:43;;;;;;;3.15;0.80;;;15.70;99.90;;;;;;6187097;23;20028;-91
2022/06/19 10:31:37;;;;;;;4.07;1.10;;;15.70;99.90;;;;;;6182355;23;20025;-94
2022/06/19 10:34:15;;;;;;;4.05;0.90;;;15.50;99.90;;;;;;6180161;23;20044;-93
2022/06/19 10:37:13;;;;;;;3.65;0.90;;;15.60;99.90;;;;;;6182517;23;20013;-92
2022/06/19 10:40:08;;;;;;;1.88;0.80;;;15.60;99.90;;;;;;6179387;23;20013;-93
2022/06/19 10:43:18;;;;;;;3.22;0.90;;;15.90;99.90;;;;;;6177832;23;20017;-91
2022/06/19 10:45:49;;;;;;;3.22;0.80;;;15.70;99.90;;;;;;6179459;23;20012;-94
2022/06/19 10:48:43;;;;;;;4.22;1.10;;;15.60;99.90;;;;;;6178631;23;20024;-94
2022/06/19 10:51:24;;;;;;;3.90;0.80;;;15.60;99.90;;;;;;6177787;23;20060;-92
2022/06/19 10:54:24;;;;;;;1.63;0.70;;;15.10;99.90;;;;;;6174317;23;20012;-91
2022/06/19 10:57:29;;;;;;;1.58;0.80;;;15.70;99.90;;;;;;6177971;23;20016;-92
2022/06/19 10:59:55;;;;;;;1.38;0.60;;;16.20;99.90;;;;;;6156270;23;20013;-93
2022/06/19 11:05:50;;;;;;;1.30;0.68;;;15.90;99.90;;;;;;6204303;23;20021;-93
2022/06/19 11:08:21;;;;;;;2.38;0.90;;;16.10;99.90;;;;;;6169164;23;20017;-92
2022/06/19 11:11:35;;;;;;;2.85;0.70;;;16.30;99.90;;;;;;6172629;23;20242;-92
2022/06/19 11:14:11;;;;;;;1.90;0.75;;;16.00;99.90;;;;;;6157963;23;20017;-92
2022/06/19 11:17:05;;;;;;;1.90;0.80;;;15.50;99.90;;;;;;6176286;23;20028;-92
2022/06/19 11:19:40;;;;;;;3.03;0.82;;;16.10;99.90;;;;;;6177507;23;20060;-92
2022/06/19 11:22:52;;;;;;;2.03;1.00;;;16.00;99.90;;;;;;6179349;23;20044;-92
2022/06/19 11:25:39;;;;;;;3.80;1.08;;;16.00;99.90;;;;;;6183223;23;20028;-92
2022/06/19 11:28:18;;;;;;;1.75;0.98;;;15.90;99.90;;;;;;6184080;23;20047;-93
2022/06/19 11:31:09;;;;;;;1.52;0.88;;;15.70;99.90;;;;;;6140323;23;20011;-91
2022/06/19 11:33:40;;;;;;;1.48;0.95;;;15.60;99.90;;;;;;6183352;23;20024;-93
2022/06/19 11:36:14;;;;;;;3.58;0.98;;;15.50;99.90;;;;;;6183434;23;20012;-93
2022/06/19 11:46:28;;;;;;;1.70;0.80;;;15.00;99.90;;;;;;6179234;23;20017;-95
2022/06/19 11:48:54;;;;;;;2.53;1.08;;;14.80;99.90;;;;;;6128431;23;20060;-93
2022/06/19 11:51:24;;;;;;;3.55;1.00;;;14.70;99.90;;;;;;6103289;23;20052;-94
2022/06/19 11:53:57;;;;;;;3.92;1.13;;;14.40;99.90;;;;;;6131379;23;20020;-94
2022/06/19 11:56:34;;;;;;;2.80;0.93;;;14.30;99.90;;;;;;6131954;23;20032;-92
2022/06/19 11:59:25;;;;;;;3.35;1.00;;;14.30;99.90;;;;;;6128690;23;20032;-93
2022/06/19 12:01:51;;;;;;;2.67;0.95;;;14.40;99.90;;;;;;6124850;23;20024;-93
2022/06/19 12:04:37;;;;;;;3.50;1.10;;;14.40;99.90;;;;;;6100239;23;20364;-95
2022/06/19 12:07:18;;;;;;;3.92;1.30;;;14.40;99.90;;;;;;6144989;23;20021;-93
2022/06/19 12:10:02;;;;;;;3.40;1.17;;;14.40;99.90;;;;;;6128401;23;20001;-93
2022/06/19 12:12:36;;;;;;;3.80;1.10;;;14.30;99.90;;;;;;6131127;23;20014;-93
2022/06/19 12:15:23;;;;;;;4.65;1.15;;;14.40;99.90;;;;;;6133009;23;20047;-93
2022/06/19 12:18:13;;;;;;;4.60;1.85;;;14.40;99.90;;;;;;6128081;23;20029;-92
2022/06/19 12:20:40;;;;;;;5.05;1.35;;;14.50;99.90;;;;;;6127009;23;20059;-92
2022/06/19 12:23:17;;;;;;;4.20;1.08;;;14.50;99.90;;;;;;6123247;23;20017;-92
2022/06/19 12:25:51;;;;;;;2.70;1.00;;;14.50;99.90;;;;;;6122997;23;20014;-92
2022/06/19 12:28:20;;;;;;;6.70;1.27;;;14.70;99.90;;;;;;6118995;23;20017;-91
2022/06/19 12:31:05;;;;;;;4.78;1.30;;;14.80;99.90;;;;;;6123118;23;20037;-93
2022/06/19 12:34:06;;;;;;;2.60;0.82;;;14.90;99.90;;;;;;6125950;23;20025;-92
2022/06/19 12:36:40;;;;;;;3.15;1.00;;;15.20;99.90;;;;;;6130697;23;20005;-91
2022/06/19 12:39:34;;;;;;;5.63;1.20;;;15.50;99.90;;;;;;6174231;23;20021;-93
2022/06/19 12:42:46;;;;;;;4.20;1.08;;;15.70;99.90;;;;;;6191201;23;20058;-92
2022/06/19 12:45:51;;;;;;;4.20;1.42;;;16.10;99.90;;;;;;6197054;23;20027;-94
2022/06/19 12:48:59;;;;;;;3.53;1.17;;;16.30;99.90;;;;;;6189434;23;20040;-93
2022/06/19 12:51:51;;;;;;;4.95;1.23;;;16.20;99.90;;;;;;6092983;23;20001;-93
2022/06/19 12:55:11;;;;;;;5.88;1.08;;;16.00;99.90;;;;;;6106777;23;20045;-89
2022/06/19 12:58:04;;;;;;;7.63;1.15;;;15.80;99.90;;;;;;6097686;23;20025;-92
2022/06/19 13:00:47;;;;;;;3.30;1.20;;;16.10;99.90;;;;;;6207217;23;20545;-91
2022/06/19 13:03:23;;;;;;;6.63;1.25;;;15.90;99.90;;;;;;6186418;23;20016;-90
2022/06/19 13:11:19;;;;;;;5.65;1.42;;;15.80;99.90;;;;;;6217818;23;20348;-88
2022/06/19 13:13:48;;;;;;;3.28;0.93;;;15.30;99.90;;;;;;6166456;23;20318;-88
2022/06/19 13:16:24;;;;;;;4.47;1.13;;;16.10;99.90;;;;;;6166531;23;20023;-88
2022/06/19 13:18:53;;;;;;;4.15;1.02;;;16.30;99.90;;;;;;6164700;23;20009;-88
2022/06/19 13:25:18;;;;;;;3.70;1.13;;;16.40;99.90;;;;;;6187004;23;20375;-88
2022/06/19 13:28:28;;;;;;;5.07;1.08;;;16.50;99.90;;;;;;6168670;23;20047;-89
2022/06/19 13:31:55;;;;;;;4.70;1.02;;;16.70;99.90;;;;;;6168284;23;20035;-87
2022/06/19 14:15:51;;;;;;;4.35;1.13;;;18.20;99.90;;;;;;6106290;23;20018;-90
2022/06/19 14:22:51;;;;;;;;;;;;;;;;;;;;;
2022/06/19 14:25:26;;;;;;;3.47;1.10;;;18.00;99.90;;;;;;6018154;23;20027;-88
2022/06/19 14:28:39;;;;;;;;;;;;;;;;;;;;;
2022/06/19 14:34:35;;;;;;;6.45;1.45;;;18.00;99.90;;;;;;6093033;23;20147;-88
2022/06/19 14:41:39;;;;;;;4.13;1.40;;;17.60;99.90;;;;;;6133022;23;20009;-87
2022/06/19 14:51:44;;;;;;;4.15;1.27;;;17.90;99.90;;;;;;6174324;23;20048;-89
2022/06/19 15:02:30;;;;;;;4.35;1.42;;;17.90;99.90;;;;;;5982943;24;20118;-88
2022/06/19 15:05:23;;;;;;;3.72;1.00;;;17.90;99.90;;;;;;5956982;23;20067;-90
2022/06/19 15:12:06;;;;;;;3.20;1.10;;;17.70;99.90;;;;;;6156734;23;20040;-89
2022/06/19 15:19:36;;;;;;;5.90;1.50;;;17.60;99.90;;;;;;5956687;24;20073;-88
2022/06/19 15:27:03;;;;;;;5.60;1.42;;;17.90;99.90;;;;;;5819006;24;20126;-90
2022/06/19 15:33:48;;;;;;;6.40;1.55;;;17.20;99.90;;;;;;5900850;24;20037;-90
2022/06/19 15:36:56;;;;;;;6.35;1.50;;;16.80;99.90;;;;;;5928198;24;20081;-89
2022/06/19 15:40:07;;;;;;;4.00;1.50;;;17.10;99.90;;;;;;5991745;23;20363;-89
2022/06/19 15:43:36;;;;;;;4.97;1.20;;;16.30;99.90;;;;;;5986827;23;20019;-90